Portada
METAR-TAF:

METAR-TAF

Aeroports :

Sharurah, Aràbia Saudita

latitud: 17-28N, longitud: 047-07E, altitud: 720 m

Observació

L'informe es va fer fa 1 hora i 16 minuts, a les 14:00 UTC
Vent 8 kt del Nord-Est
Temperatura 30°C
Humitat 22%
Pressió 1013 hPa
Visibilitat 10 km o més
sense núvols per sota de 1500 mi sense presència de cumulonimbus.

METAR: OESH 051400Z 05008KT CAVOK 30/06 Q1013 NOSIG

Hora: 18:16 (15:16 UTC)

Pronòstic

L'informe es va fer fa 4 hores i 16 minuts, a les 11:00 UTC
Pronòstic vàlid del 05 a les 12 UTC al 06 a les 18 UTC
Vent 12 kt del Est/Nord-Est
Visibilitat: 8000 m
Evolucionant progressivament
l' 05 a les 20 UTC al 05 a les 22 UTC
Vent 3 kt amb direcció variable

TAF: OESH 051100Z 0512/0618 07012KT 8000 NSC BECMG 0520/0522 VRB03KT

Observacions i pronòstics meteorològics de més de 4000 aeroports (METAR i TAF).

Les estacions disponibles són els punts grocs i vermells al mapa.

Posi el ratolí al punt desitjat per veure el nom de l'estació.

Feu clic per veure les observacions i els pronòstics meteorològics.

Per canviar el mapa: feu clic els botons verds amb una creu de color negre per apropar; al botó verd amb un guió per allunyar la imatge; o en les fletxes verdes per a mapes adjacents.


METAR-TAF: